Sault Sainte Marie, MI

3:54 AM EST on March 04, 2015 (GMT -0500)
Sault Ste Marie Municipal / Sanderson Field | Change Station
CLOSE
Current Station
Airport
Location: Sault Ste Marie,
Elevation: 715 ft
Nearby Weather Stations

Elev 715 ft 46.48 °N, 84.36 °W | Updated 59 minutes ago

Snow
Snow
17 °F
Feels Like 2 °F
N
17
Wind Variable Wind from WNW
Gusts 30 mph

Today
High -- | Low -- °F
--% Chance of Precip.
Yesterday
High -- | Low -- °F
Precip. -- in
7:11 AM 6:27 PM
Waxing Gibbous, 98% visible
Pressure 29.72 in
Visibility 3.0 miles
Clouds Scattered Clouds 2300 ft
Overcast 3800 ft
Windchill 2 °F
Dew Point 11 °F
Humidity 77%
Rainfall 0.01 in
Snow Depth Not available.
UV 0 out of 12
Pollen .40 out of 12
Air Quality Not available.
Flu Activity Not available.
METAR KANJ 040755Z AUTO 29015G26KT 3SM -SN SCT023 OVC038 M08/M12 A2968 RMK AO2 PK WND 30027/0740 SLP062 P0000 T10831117

More Conditions Fewer Conditions

Pressure 29.72 in
Visibility 3.0 miles
Clouds Scattered Clouds 2300 ft
Overcast 3800 ft
Windchill 2 °F
Dew Point 11 °F
Humidity 77%
Rainfall 0.01 in
Snow Depth Not available.
UV 0 out of 12
Pollen .40 out of 12
Air Quality Not available.
Flu Activity Not available.
METAR KANJ 040755Z AUTO 29015G26KT 3SM -SN SCT023 OVC038 M08/M12 A2968 RMK AO2 PK WND 30027/0740 SLP062 P0000 T10831117

More Conditions Fewer Conditions

Nowcast | as of 3:00 am EST on March 4, 2015

At 4 am...partly cloudy. Chance of snow showers. Temperature 14. West winds 17 mph. Wind chill 3 below. Chance of snow showers. Scattered snow showers. At 10 am...mostly cloudy. Scattered snow showers. Temperature 5 above. West winds 16 mph with gusts to 30 mph. Wind chill 15 below.

×

10-Day Weather Forecast

Almanac

Astronomy

Mar. 04, 2015 Rise Set
Actual Time
Civil Twilight
Nautical Twilight
Astronomical Twilight
Moon
Length of Visible Light
Length of Day
Tomorrow will be .
, % of the Moon is Illuminated

Today's Extremes

State Highs State Lows

Community

WunderPhotos

Upload Photos

1,802,416 photos uploaded!

WunderBlogs® & News

Nearby

Air Quality

  Air Quality AQ Index Pollutant
Not available.

Snow Depth

Station Depth Elevation

Earthquake Activity

City Distance Mag. Time & Date
Minimum magnitude displayed is 2.5.

Coastal Water Temperatures

Place Temperature

Nearby Weather Stations